sensor_id;sensor_type;location;lat;lon;timestamp;temperature;humidity
15922;DHT22;8060;50.948;3.146;2024-01-15T00:00:39;3.50;99.90
15922;DHT22;8060;50.948;3.146;2024-01-15T00:03:08;3.50;99.90
15922;DHT22;8060;50.948;3.146;2024-01-15T00:05:39;3.50;99.90
15922;DHT22;8060;50.948;3.146;2024-01-15T00:08:07;3.50;99.90
15922;DHT22;8060;50.948;3.146;2024-01-15T00:10:35;3.50;99.90
15922;DHT22;8060;50.948;3.146;2024-01-15T00:13:03;3.50;99.90
15922;DHT22;8060;50.948;3.146;2024-01-15T00:15:31;3.50;99.90
15922;DHT22;8060;50.948;3.146;2024-01-15T00:17:59;3.50;99.90
15922;DHT22;8060;50.948;3.146;2024-01-15T00:20:27;3.50;99.90
15922;DHT22;8060;50.948;3.146;2024-01-15T00:22:58;3.50;99.90
15922;DHT22;8060;50.948;3.146;2024-01-15T00:25:26;3.50;99.90
15922;DHT22;8060;50.948;3.146;2024-01-15T00:27:54;3.50;99.90
15922;DHT22;8060;50.948;3.146;2024-01-15T00:30:22;3.60;99.90
15922;DHT22;8060;50.948;3.146;2024-01-15T00:32:50;3.60;99.90
15922;DHT22;8060;50.948;3.146;2024-01-15T00:35:18;3.60;99.90
15922;DHT22;8060;50.948;3.146;2024-01-15T00:37:47;3.60;99.90
15922;DHT22;8060;50.948;3.146;2024-01-15T00:40:16;3.60;99.90
15922;DHT22;8060;50.948;3.146;2024-01-15T00:42:44;3.60;99.90
15922;DHT22;8060;50.948;3.146;2024-01-15T00:45:12;3.50;99.90
15922;DHT22;8060;50.948;3.146;2024-01-15T00:47:41;3.60;99.90
15922;DHT22;8060;50.948;3.146;2024-01-15T00:50:09;3.60;99.90
15922;DHT22;8060;50.948;3.146;2024-01-15T00:52:37;3.60;99.90
15922;DHT22;8060;50.948;3.146;2024-01-15T00:55:06;3.60;99.90
15922;DHT22;8060;50.948;3.146;2024-01-15T00:57:36;3.60;99.90
15922;DHT22;8060;50.948;3.146;2024-01-15T01:00:05;3.60;99.90
15922;DHT22;8060;50.948;3.146;2024-01-15T01:02:34;3.70;99.90
15922;DHT22;8060;50.948;3.146;2024-01-15T01:05:02;3.60;99.90
15922;DHT22;8060;50.948;3.146;2024-01-15T01:07:31;3.60;99.90
15922;DHT22;8060;50.948;3.146;2024-01-15T01:09:59;3.70;99.90
15922;DHT22;8060;50.948;3.146;2024-01-15T01:12:27;3.70;99.90
15922;DHT22;8060;50.948;3.146;2024-01-15T01:14:58;3.70;99.90
15922;DHT22;8060;50.948;3.146;2024-01-15T01:17:26;3.70;99.90
15922;DHT22;8060;50.948;3.146;2024-01-15T01:19:54;3.70;99.90
15922;DHT22;8060;50.948;3.146;2024-01-15T01:22:23;3.70;99.90
15922;DHT22;8060;50.948;3.146;2024-01-15T01:24:51;3.60;99.90
15922;DHT22;8060;50.948;3.146;2024-01-15T01:27:20;3.60;99.90
15922;DHT22;8060;50.948;3.146;2024-01-15T01:29:48;3.50;99.90
15922;DHT22;8060;50.948;3.146;2024-01-15T01:32:18;3.50;99.90
15922;DHT22;8060;50.948;3.146;2024-01-15T01:34:46;3.60;99.90
15922;DHT22;8060;50.948;3.146;2024-01-15T01:37:14;3.60;99.90
15922;DHT22;8060;50.948;3.146;2024-01-15T01:39:43;3.60;99.90
15922;DHT22;8060;50.948;3.146;2024-01-15T01:42:12;3.60;99.90
15922;DHT22;8060;50.948;3.146;2024-01-15T01:44:40;3.60;99.90
15922;DHT22;8060;50.948;3.146;2024-01-15T01:47:08;3.50;99.90
15922;DHT22;8060;50.948;3.146;2024-01-15T01:49:38;3.60;99.90
15922;DHT22;8060;50.948;3.146;2024-01-15T01:52:07;3.50;99.90
15922;DHT22;8060;50.948;3.146;2024-01-15T01:54:37;3.50;99.90
15922;DHT22;8060;50.948;3.146;2024-01-15T01:57:06;3.50;99.90
15922;DHT22;8060;50.948;3.146;2024-01-15T01:59:35;3.60;99.90
15922;DHT22;8060;50.948;3.146;2024-01-15T02:02:06;3.60;99.90
15922;DHT22;8060;50.948;3.146;2024-01-15T02:04:34;3.50;99.90
15922;DHT22;8060;50.948;3.146;2024-01-15T02:07:06;3.60;99.90
15922;DHT22;8060;50.948;3.146;2024-01-15T02:09:34;3.60;99.90
15922;DHT22;8060;50.948;3.146;2024-01-15T02:12:03;3.60;99.90
15922;DHT22;8060;50.948;3.146;2024-01-15T02:14:31;3.60;99.90
15922;DHT22;8060;50.948;3.146;2024-01-15T02:17:00;3.60;99.90
15922;DHT22;8060;50.948;3.146;2024-01-15T02:19:28;3.60;99.90
15922;DHT22;8060;50.948;3.146;2024-01-15T02:21:56;3.60;99.90
15922;DHT22;8060;50.948;3.146;2024-01-15T02:24:25;3.70;99.90
15922;DHT22;8060;50.948;3.146;2024-01-15T02:26:53;3.70;99.90
15922;DHT22;8060;50.948;3.146;2024-01-15T02:29:22;3.60;99.90
15922;DHT22;8060;50.948;3.146;2024-01-15T02:31:50;3.70;99.90
15922;DHT22;8060;50.948;3.146;2024-01-15T02:34:19;3.70;99.90
15922;DHT22;8060;50.948;3.146;2024-01-15T02:36:47;3.70;99.90
15922;DHT22;8060;50.948;3.146;2024-01-15T02:39:15;3.70;99.90
15922;DHT22;8060;50.948;3.146;2024-01-15T02:41:45;3.70;99.90
15922;DHT22;8060;50.948;3.146;2024-01-15T02:44:13;3.60;99.90
15922;DHT22;8060;50.948;3.146;2024-01-15T02:46:41;3.70;99.90
15922;DHT22;8060;50.948;3.146;2024-01-15T02:49:09;3.80;99.90
15922;DHT22;8060;50.948;3.146;2024-01-15T02:51:37;3.80;99.90
15922;DHT22;8060;50.948;3.146;2024-01-15T02:54:05;3.80;99.90
15922;DHT22;8060;50.948;3.146;2024-01-15T02:56:33;3.80;99.90
15922;DHT22;8060;50.948;3.146;2024-01-15T02:59:03;3.80;99.90
15922;DHT22;8060;50.948;3.146;2024-01-15T03:01:31;3.80;99.90
15922;DHT22;8060;50.948;3.146;2024-01-15T03:03:59;3.80;99.90
15922;DHT22;8060;50.948;3.146;2024-01-15T03:06:27;3.80;99.90
15922;DHT22;8060;50.948;3.146;2024-01-15T03:08:55;3.80;99.90
15922;DHT22;8060;50.948;3.146;2024-01-15T03:11:24;3.80;99.90
15922;DHT22;8060;50.948;3.146;2024-01-15T03:13:52;3.80;99.90
15922;DHT22;8060;50.948;3.146;2024-01-15T03:16:21;3.80;99.90
15922;DHT22;8060;50.948;3.146;2024-01-15T03:18:49;3.80;99.90
15922;DHT22;8060;50.948;3.146;2024-01-15T03:21:17;3.70;99.90
15922;DHT22;8060;50.948;3.146;2024-01-15T03:23:45;3.70;99.90
15922;DHT22;8060;50.948;3.146;2024-01-15T03:26:13;3.70;99.90
15922;DHT22;8060;50.948;3.146;2024-01-15T03:28:42;3.70;99.90
15922;DHT22;8060;50.948;3.146;2024-01-15T03:31:10;3.80;99.90
15922;DHT22;8060;50.948;3.146;2024-01-15T03:33:39;3.80;99.90
15922;DHT22;8060;50.948;3.146;2024-01-15T03:36:09;3.80;99.90
15922;DHT22;8060;50.948;3.146;2024-01-15T03:38:40;3.80;99.90
15922;DHT22;8060;50.948;3.146;2024-01-15T03:41:09;3.80;99.90
15922;DHT22;8060;50.948;3.146;2024-01-15T03:43:37;3.80;99.90
15922;DHT22;8060;50.948;3.146;2024-01-15T03:46:06;3.80;99.90
15922;DHT22;8060;50.948;3.146;2024-01-15T03:48:34;3.90;99.90
15922;DHT22;8060;50.948;3.146;2024-01-15T03:51:04;3.90;99.90
15922;DHT22;8060;50.948;3.146;2024-01-15T03:53:32;4.00;99.90
15922;DHT22;8060;50.948;3.146;2024-01-15T03:56:00;3.90;99.90
15922;DHT22;8060;50.948;3.146;2024-01-15T03:58:28;3.90;99.90
15922;DHT22;8060;50.948;3.146;2024-01-15T04:00:56;3.80;99.90
15922;DHT22;8060;50.948;3.146;2024-01-15T04:03:25;3.80;99.90
15922;DHT22;8060;50.948;3.146;2024-01-15T04:05:53;3.80;99.90
15922;DHT22;8060;50.948;3.146;2024-01-15T04:08:22;3.80;99.90
15922;DHT22;8060;50.948;3.146;2024-01-15T04:10:50;3.80;99.90
15922;DHT22;8060;50.948;3.146;2024-01-15T04:13:18;3.80;99.90
15922;DHT22;8060;50.948;3.146;2024-01-15T04:15:46;3.80;99.90
15922;DHT22;8060;50.948;3.146;2024-01-15T04:18:16;3.70;99.90
15922;DHT22;8060;50.948;3.146;2024-01-15T04:20:44;3.70;99.90
15922;DHT22;8060;50.948;3.146;2024-01-15T04:23:12;3.70;99.90
15922;DHT22;8060;50.948;3.146;2024-01-15T04:25:42;3.70;99.90
15922;DHT22;8060;50.948;3.146;2024-01-15T04:28:10;3.80;99.90
15922;DHT22;8060;50.948;3.146;2024-01-15T04:30:38;3.80;99.90
15922;DHT22;8060;50.948;3.146;2024-01-15T04:33:06;3.80;99.90
15922;DHT22;8060;50.948;3.146;2024-01-15T04:35:34;3.80;99.90
15922;DHT22;8060;50.948;3.146;2024-01-15T04:38:02;3.80;99.90
15922;DHT22;8060;50.948;3.146;2024-01-15T04:40:31;3.80;99.90
15922;DHT22;8060;50.948;3.146;2024-01-15T04:43:03;3.80;99.90
15922;DHT22;8060;50.948;3.146;2024-01-15T04:45:31;3.80;99.90
15922;DHT22;8060;50.948;3.146;2024-01-15T04:47:59;3.80;99.90
15922;DHT22;8060;50.948;3.146;2024-01-15T04:50:27;3.80;99.90
15922;DHT22;8060;50.948;3.146;2024-01-15T04:52:55;3.70;99.90
15922;DHT22;8060;50.948;3.146;2024-01-15T04:55:23;3.70;99.90
15922;DHT22;8060;50.948;3.146;2024-01-15T04:57:52;3.70;99.90
15922;DHT22;8060;50.948;3.146;2024-01-15T05:00:21;3.70;99.90
15922;DHT22;8060;50.948;3.146;2024-01-15T05:02:49;3.70;99.90
15922;DHT22;8060;50.948;3.146;2024-01-15T05:05:17;3.70;99.90
15922;DHT22;8060;50.948;3.146;2024-01-15T05:07:46;3.70;99.90
15922;DHT22;8060;50.948;3.146;2024-01-15T05:10:14;3.70;99.90
15922;DHT22;8060;50.948;3.146;2024-01-15T05:12:42;3.70;99.90
15922;DHT22;8060;50.948;3.146;2024-01-15T05:15:10;3.70;99.90
15922;DHT22;8060;50.948;3.146;2024-01-15T05:17:40;3.70;99.90
15922;DHT22;8060;50.948;3.146;2024-01-15T05:20:09;3.70;99.90
15922;DHT22;8060;50.948;3.146;2024-01-15T05:22:37;3.80;99.90
15922;DHT22;8060;50.948;3.146;2024-01-15T05:25:06;3.80;99.90
15922;DHT22;8060;50.948;3.146;2024-01-15T05:27:34;3.80;99.90
15922;DHT22;8060;50.948;3.146;2024-01-15T05:30:03;3.90;99.90
15922;DHT22;8060;50.948;3.146;2024-01-15T05:32:31;3.80;99.90
15922;DHT22;8060;50.948;3.146;2024-01-15T05:35:01;3.80;99.90
15922;DHT22;8060;50.948;3.146;2024-01-15T05:37:29;3.90;99.90
15922;DHT22;8060;50.948;3.146;2024-01-15T05:39:57;3.90;99.90
15922;DHT22;8060;50.948;3.146;2024-01-15T05:42:26;3.90;99.90
15922;DHT22;8060;50.948;3.146;2024-01-15T05:44:57;3.90;99.90
15922;DHT22;8060;50.948;3.146;2024-01-15T05:47:26;3.80;99.90
15922;DHT22;8060;50.948;3.146;2024-01-15T05:49:54;3.90;99.90
15922;DHT22;8060;50.948;3.146;2024-01-15T05:52:24;3.90;99.90
15922;DHT22;8060;50.948;3.146;2024-01-15T05:54:52;3.80;99.90
15922;DHT22;8060;50.948;3.146;2024-01-15T05:57:20;3.80;99.90
15922;DHT22;8060;50.948;3.146;2024-01-15T05:59:49;3.80;99.90
15922;DHT22;8060;50.948;3.146;2024-01-15T06:02:17;3.90;99.90
15922;DHT22;8060;50.948;3.146;2024-01-15T06:04:45;3.80;99.90
15922;DHT22;8060;50.948;3.146;2024-01-15T06:07:13;3.80;99.90
15922;DHT22;8060;50.948;3.146;2024-01-15T06:09:43;3.90;99.90
15922;DHT22;8060;50.948;3.146;2024-01-15T06:12:11;3.80;99.90
15922;DHT22;8060;50.948;3.146;2024-01-15T06:14:39;3.80;99.90
15922;DHT22;8060;50.948;3.146;2024-01-15T06:17:08;3.80;99.90
15922;DHT22;8060;50.948;3.146;2024-01-15T06:19:36;3.80;99.90
15922;DHT22;8060;50.948;3.146;2024-01-15T06:22:04;3.80;99.90
15922;DHT22;8060;50.948;3.146;2024-01-15T06:24:32;3.80;99.90
15922;DHT22;8060;50.948;3.146;2024-01-15T06:27:02;3.70;99.90
15922;DHT22;8060;50.948;3.146;2024-01-15T06:29:30;3.80;99.90
15922;DHT22;8060;50.948;3.146;2024-01-15T06:31:58;3.70;99.90
15922;DHT22;8060;50.948;3.146;2024-01-15T06:34:26;3.70;99.90
15922;DHT22;8060;50.948;3.146;2024-01-15T06:36:55;3.80;99.90
15922;DHT22;8060;50.948;3.146;2024-01-15T06:39:23;3.70;99.90
15922;DHT22;8060;50.948;3.146;2024-01-15T06:41:51;3.60;99.90
15922;DHT22;8060;50.948;3.146;2024-01-15T06:44:21;3.50;99.90
15922;DHT22;8060;50.948;3.146;2024-01-15T06:46:49;3.50;99.90
15922;DHT22;8060;50.948;3.146;2024-01-15T06:49:18;3.50;99.90
15922;DHT22;8060;50.948;3.146;2024-01-15T06:51:46;3.40;99.90
15922;DHT22;8060;50.948;3.146;2024-01-15T06:54:15;3.40;99.90
15922;DHT22;8060;50.948;3.146;2024-01-15T06:56:44;3.30;99.90
15922;DHT22;8060;50.948;3.146;2024-01-15T06:59:12;3.30;99.90
15922;DHT22;8060;50.948;3.146;2024-01-15T07:01:46;3.30;99.90
15922;DHT22;8060;50.948;3.146;2024-01-15T07:04:14;3.30;99.90
15922;DHT22;8060;50.948;3.146;2024-01-15T07:06:42;3.30;99.90
15922;DHT22;8060;50.948;3.146;2024-01-15T07:09:10;3.20;99.90
15922;DHT22;8060;50.948;3.146;2024-01-15T07:11:41;3.10;99.90
15922;DHT22;8060;50.948;3.146;2024-01-15T07:14:11;3.00;99.90
15922;DHT22;8060;50.948;3.146;2024-01-15T07:16:40;3.00;99.90
15922;DHT22;8060;50.948;3.146;2024-01-15T07:19:13;3.00;99.90
15922;DHT22;8060;50.948;3.146;2024-01-15T07:21:41;2.90;99.90
15922;DHT22;8060;50.948;3.146;2024-01-15T07:24:10;2.90;99.90
15922;DHT22;8060;50.948;3.146;2024-01-15T07:26:38;2.90;99.90
15922;DHT22;8060;50.948;3.146;2024-01-15T07:29:06;2.90;99.90
15922;DHT22;8060;50.948;3.146;2024-01-15T07:31:35;2.90;99.90
15922;DHT22;8060;50.948;3.146;2024-01-15T07:34:03;2.90;99.90
15922;DHT22;8060;50.948;3.146;2024-01-15T07:36:33;2.90;99.90
15922;DHT22;8060;50.948;3.146;2024-01-15T07:39:01;2.80;99.90
15922;DHT22;8060;50.948;3.146;2024-01-15T07:41:31;2.80;99.90
15922;DHT22;8060;50.948;3.146;2024-01-15T07:43:59;2.80;99.90
15922;DHT22;8060;50.948;3.146;2024-01-15T07:46:27;2.80;99.90
15922;DHT22;8060;50.948;3.146;2024-01-15T07:48:55;2.80;99.90
15922;DHT22;8060;50.948;3.146;2024-01-15T07:51:24;2.80;99.90
15922;DHT22;8060;50.948;3.146;2024-01-15T07:53:54;2.80;99.90
15922;DHT22;8060;50.948;3.146;2024-01-15T07:56:23;2.80;99.90
15922;DHT22;8060;50.948;3.146;2024-01-15T07:58:51;2.90;99.90
15922;DHT22;8060;50.948;3.146;2024-01-15T08:01:19;3.00;99.90
15922;DHT22;8060;50.948;3.146;2024-01-15T08:03:47;3.00;99.90
15922;DHT22;8060;50.948;3.146;2024-01-15T08:06:16;3.00;99.90
15922;DHT22;8060;50.948;3.146;2024-01-15T08:08:44;3.00;99.90
15922;DHT22;8060;50.948;3.146;2024-01-15T08:11:13;3.00;99.90
15922;DHT22;8060;50.948;3.146;2024-01-15T08:13:41;3.10;99.90
15922;DHT22;8060;50.948;3.146;2024-01-15T08:16:10;3.10;99.90
15922;DHT22;8060;50.948;3.146;2024-01-15T08:18:38;3.10;99.90
15922;DHT22;8060;50.948;3.146;2024-01-15T08:21:06;3.20;99.90
15922;DHT22;8060;50.948;3.146;2024-01-15T08:23:34;3.20;99.90
15922;DHT22;8060;50.948;3.146;2024-01-15T08:26:03;3.20;99.90
15922;DHT22;8060;50.948;3.146;2024-01-15T08:28:32;3.30;99.90
15922;DHT22;8060;50.948;3.146;2024-01-15T08:31:03;3.30;99.90
15922;DHT22;8060;50.948;3.146;2024-01-15T08:33:31;3.30;99.90
15922;DHT22;8060;50.948;3.146;2024-01-15T08:35:59;3.30;99.90
15922;DHT22;8060;50.948;3.146;2024-01-15T08:38:27;3.30;99.90
15922;DHT22;8060;50.948;3.146;2024-01-15T08:40:55;3.40;99.90
15922;DHT22;8060;50.948;3.146;2024-01-15T08:43:25;3.40;99.90
15922;DHT22;8060;50.948;3.146;2024-01-15T08:45:55;3.40;99.90
15922;DHT22;8060;50.948;3.146;2024-01-15T08:48:23;3.40;99.90
15922;DHT22;8060;50.948;3.146;2024-01-15T08:50:54;3.30;99.90
15922;DHT22;8060;50.948;3.146;2024-01-15T08:53:23;3.30;99.90
15922;DHT22;8060;50.948;3.146;2024-01-15T08:55:51;3.30;99.90
15922;DHT22;8060;50.948;3.146;2024-01-15T08:58:19;3.30;99.90
15922;DHT22;8060;50.948;3.146;2024-01-15T09:00:47;3.40;99.90
15922;DHT22;8060;50.948;3.146;2024-01-15T09:03:17;3.40;99.90
15922;DHT22;8060;50.948;3.146;2024-01-15T09:05:45;3.40;99.90
15922;DHT22;8060;50.948;3.146;2024-01-15T09:08:13;3.40;99.90
15922;DHT22;8060;50.948;3.146;2024-01-15T09:10:41;3.50;99.90
15922;DHT22;8060;50.948;3.146;2024-01-15T09:13:09;3.60;99.90
15922;DHT22;8060;50.948;3.146;2024-01-15T09:15:37;3.60;99.90
15922;DHT22;8060;50.948;3.146;2024-01-15T09:18:06;3.60;99.90
15922;DHT22;8060;50.948;3.146;2024-01-15T09:20:36;3.60;99.90
15922;DHT22;8060;50.948;3.146;2024-01-15T09:23:05;3.60;99.90
15922;DHT22;8060;50.948;3.146;2024-01-15T09:25:34;3.60;99.90
15922;DHT22;8060;50.948;3.146;2024-01-15T09:28:02;3.70;99.90
15922;DHT22;8060;50.948;3.146;2024-01-15T09:30:31;3.70;99.90
15922;DHT22;8060;50.948;3.146;2024-01-15T09:32:59;3.70;99.90
15922;DHT22;8060;50.948;3.146;2024-01-15T09:35:27;3.80;99.90
15922;DHT22;8060;50.948;3.146;2024-01-15T09:37:57;3.80;99.90
15922;DHT22;8060;50.948;3.146;2024-01-15T09:40:25;3.90;99.90
15922;DHT22;8060;50.948;3.146;2024-01-15T09:42:56;3.90;99.90
15922;DHT22;8060;50.948;3.146;2024-01-15T09:45:24;4.00;99.90
15922;DHT22;8060;50.948;3.146;2024-01-15T09:47:52;4.10;99.90
15922;DHT22;8060;50.948;3.146;2024-01-15T09:50:20;4.20;99.90
15922;DHT22;8060;50.948;3.146;2024-01-15T09:52:49;4.30;99.90
15922;DHT22;8060;50.948;3.146;2024-01-15T09:55:19;4.50;99.90
15922;DHT22;8060;50.948;3.146;2024-01-15T09:57:47;4.70;99.90
15922;DHT22;8060;50.948;3.146;2024-01-15T10:00:17;4.80;99.90
15922;DHT22;8060;50.948;3.146;2024-01-15T10:02:46;5.00;99.90
15922;DHT22;8060;50.948;3.146;2024-01-15T10:05:14;5.20;99.90
15922;DHT22;8060;50.948;3.146;2024-01-15T10:07:43;5.40;99.90
15922;DHT22;8060;50.948;3.146;2024-01-15T10:10:13;5.50;99.90
15922;DHT22;8060;50.948;3.146;2024-01-15T10:12:43;5.60;99.90
15922;DHT22;8060;50.948;3.146;2024-01-15T10:15:12;5.70;99.90
15922;DHT22;8060;50.948;3.146;2024-01-15T10:17:40;5.80;99.90
15922;DHT22;8060;50.948;3.146;2024-01-15T10:20:10;5.70;99.90
15922;DHT22;8060;50.948;3.146;2024-01-15T10:22:40;5.50;99.90
15922;DHT22;8060;50.948;3.146;2024-01-15T10:25:10;5.30;99.90
15922;DHT22;8060;50.948;3.146;2024-01-15T10:27:39;5.20;99.90
15922;DHT22;8060;50.948;3.146;2024-01-15T10:30:10;5.20;99.90
15922;DHT22;8060;50.948;3.146;2024-01-15T10:32:40;5.10;99.90
15922;DHT22;8060;50.948;3.146;2024-01-15T10:35:08;5.10;99.90
15922;DHT22;8060;50.948;3.146;2024-01-15T10:37:37;5.30;99.90
15922;DHT22;8060;50.948;3.146;2024-01-15T10:40:06;5.60;99.90
15922;DHT22;8060;50.948;3.146;2024-01-15T10:42:34;6.00;99.90
15922;DHT22;8060;50.948;3.146;2024-01-15T10:45:03;5.80;99.90
15922;DHT22;8060;50.948;3.146;2024-01-15T10:47:33;5.60;99.90
15922;DHT22;8060;50.948;3.146;2024-01-15T10:50:01;5.80;99.90
15922;DHT22;8060;50.948;3.146;2024-01-15T10:52:30;6.50;99.90
15922;DHT22;8060;50.948;3.146;2024-01-15T10:54:59;7.00;99.90
15922;DHT22;8060;50.948;3.146;2024-01-15T10:57:35;7.50;99.90
15922;DHT22;8060;50.948;3.146;2024-01-15T11:00:05;7.90;99.90
15922;DHT22;8060;50.948;3.146;2024-01-15T11:02:36;8.30;99.90
15922;DHT22;8060;50.948;3.146;2024-01-15T11:05:05;8.30;99.90
15922;DHT22;8060;50.948;3.146;2024-01-15T11:07:33;8.00;99.90
15922;DHT22;8060;50.948;3.146;2024-01-15T11:10:04;7.60;99.90
15922;DHT22;8060;50.948;3.146;2024-01-15T11:12:32;7.20;99.90
15922;DHT22;8060;50.948;3.146;2024-01-15T11:15:04;6.90;99.90
15922;DHT22;8060;50.948;3.146;2024-01-15T11:17:59;6.70;99.90
15922;DHT22;8060;50.948;3.146;2024-01-15T11:20:28;6.40;99.90
15922;DHT22;8060;50.948;3.146;2024-01-15T11:22:57;6.10;99.90
15922;DHT22;8060;50.948;3.146;2024-01-15T11:25:34;5.80;99.90
15922;DHT22;8060;50.948;3.146;2024-01-15T11:28:04;5.60;99.90
15922;DHT22;8060;50.948;3.146;2024-01-15T11:30:32;5.50;99.90
15922;DHT22;8060;50.948;3.146;2024-01-15T11:33:05;5.40;99.90
15922;DHT22;8060;50.948;3.146;2024-01-15T11:35:50;5.70;99.90
15922;DHT22;8060;50.948;3.146;2024-01-15T11:38:27;6.10;99.90
15922;DHT22;8060;50.948;3.146;2024-01-15T11:40:58;6.10;99.90
15922;DHT22;8060;50.948;3.146;2024-01-15T11:43:28;6.20;99.90
15922;DHT22;8060;50.948;3.146;2024-01-15T11:46:02;6.30;99.90
15922;DHT22;8060;50.948;3.146;2024-01-15T11:48:45;6.40;99.90
15922;DHT22;8060;50.948;3.146;2024-01-15T11:51:16;7.10;99.90
15922;DHT22;8060;50.948;3.146;2024-01-15T11:53:48;7.80;99.90
15922;DHT22;8060;50.948;3.146;2024-01-15T11:56:17;8.40;99.90
15922;DHT22;8060;50.948;3.146;2024-01-15T11:58:47;8.40;99.90
15922;DHT22;8060;50.948;3.146;2024-01-15T12:01:17;8.60;99.90
15922;DHT22;8060;50.948;3.146;2024-01-15T12:03:49;8.70;99.90
15922;DHT22;8060;50.948;3.146;2024-01-15T12:06:17;8.40;99.90
15922;DHT22;8060;50.948;3.146;2024-01-15T12:08:45;8.60;99.90
15922;DHT22;8060;50.948;3.146;2024-01-15T12:11:14;8.20;99.90
15922;DHT22;8060;50.948;3.146;2024-01-15T12:13:44;7.70;99.90
15922;DHT22;8060;50.948;3.146;2024-01-15T12:16:12;7.40;99.90
15922;DHT22;8060;50.948;3.146;2024-01-15T12:18:41;7.10;99.90
15922;DHT22;8060;50.948;3.146;2024-01-15T12:21:11;7.30;99.90
15922;DHT22;8060;50.948;3.146;2024-01-15T12:23:39;7.90;99.90
15922;DHT22;8060;50.948;3.146;2024-01-15T12:26:07;8.50;99.90
15922;DHT22;8060;50.948;3.146;2024-01-15T12:28:36;8.40;99.90
15922;DHT22;8060;50.948;3.146;2024-01-15T12:31:06;7.80;99.90
15922;DHT22;8060;50.948;3.146;2024-01-15T12:33:35;7.30;99.90
15922;DHT22;8060;50.948;3.146;2024-01-15T12:36:04;6.90;99.90
15922;DHT22;8060;50.948;3.146;2024-01-15T12:38:34;7.20;99.90
15922;DHT22;8060;50.948;3.146;2024-01-15T12:41:02;7.60;99.90
15922;DHT22;8060;50.948;3.146;2024-01-15T12:43:30;8.40;99.90
15922;DHT22;8060;50.948;3.146;2024-01-15T12:45:58;8.70;99.90
15922;DHT22;8060;50.948;3.146;2024-01-15T12:48:27;8.50;99.90
15922;DHT22;8060;50.948;3.146;2024-01-15T12:50:55;8.20;99.90
15922;DHT22;8060;50.948;3.146;2024-01-15T12:53:23;8.00;99.90
15922;DHT22;8060;50.948;3.146;2024-01-15T12:55:53;8.50;99.90
15922;DHT22;8060;50.948;3.146;2024-01-15T12:58:21;8.90;99.90
15922;DHT22;8060;50.948;3.146;2024-01-15T13:00:49;9.60;99.90
15922;DHT22;8060;50.948;3.146;2024-01-15T13:03:17;10.00;99.90
15922;DHT22;8060;50.948;3.146;2024-01-15T13:05:46;10.00;99.90
15922;DHT22;8060;50.948;3.146;2024-01-15T13:08:14;9.50;99.90
15922;DHT22;8060;50.948;3.146;2024-01-15T13:10:42;9.70;99.90
15922;DHT22;8060;50.948;3.146;2024-01-15T13:13:12;10.20;99.90
15922;DHT22;8060;50.948;3.146;2024-01-15T13:15:40;10.50;99.90
15922;DHT22;8060;50.948;3.146;2024-01-15T13:18:09;10.80;99.90
15922;DHT22;8060;50.948;3.146;2024-01-15T13:20:37;10.60;99.90
15922;DHT22;8060;50.948;3.146;2024-01-15T13:23:05;10.40;99.90
15922;DHT22;8060;50.948;3.146;2024-01-15T13:25:33;10.00;99.90
15922;DHT22;8060;50.948;3.146;2024-01-15T13:28:03;9.50;99.90
15922;DHT22;8060;50.948;3.146;2024-01-15T13:30:33;9.10;99.90
15922;DHT22;8060;50.948;3.146;2024-01-15T13:33:01;9.10;99.90
15922;DHT22;8060;50.948;3.146;2024-01-15T13:35:32;9.00;99.90
15922;DHT22;8060;50.948;3.146;2024-01-15T13:38:00;8.90;99.90
15922;DHT22;8060;50.948;3.146;2024-01-15T13:40:28;8.50;99.90
15922;DHT22;8060;50.948;3.146;2024-01-15T13:42:56;7.70;99.90
15922;DHT22;8060;50.948;3.146;2024-01-15T13:45:24;7.40;99.90
15922;DHT22;8060;50.948;3.146;2024-01-15T13:47:54;7.10;99.90
15922;DHT22;8060;50.948;3.146;2024-01-15T13:50:22;6.90;99.90
15922;DHT22;8060;50.948;3.146;2024-01-15T13:52:51;6.70;99.90
15922;DHT22;8060;50.948;3.146;2024-01-15T13:55:19;6.60;99.90
15922;DHT22;8060;50.948;3.146;2024-01-15T13:57:48;6.50;99.90
15922;DHT22;8060;50.948;3.146;2024-01-15T14:00:16;6.30;99.90
15922;DHT22;8060;50.948;3.146;2024-01-15T14:02:47;6.20;99.90
15922;DHT22;8060;50.948;3.146;2024-01-15T14:05:16;6.10;99.90
15922;DHT22;8060;50.948;3.146;2024-01-15T14:07:48;6.00;99.90
15922;DHT22;8060;50.948;3.146;2024-01-15T14:10:16;5.90;99.90
15922;DHT22;8060;50.948;3.146;2024-01-15T14:12:44;5.90;99.90
15922;DHT22;8060;50.948;3.146;2024-01-15T14:15:12;6.30;99.90
15922;DHT22;8060;50.948;3.146;2024-01-15T14:17:40;6.80;99.90
15922;DHT22;8060;50.948;3.146;2024-01-15T14:20:09;7.00;99.90
15922;DHT22;8060;50.948;3.146;2024-01-15T14:22:39;7.00;99.90
15922;DHT22;8060;50.948;3.146;2024-01-15T14:25:08;7.20;99.90
15922;DHT22;8060;50.948;3.146;2024-01-15T14:27:36;7.40;99.90
15922;DHT22;8060;50.948;3.146;2024-01-15T14:30:05;7.70;99.90
15922;DHT22;8060;50.948;3.146;2024-01-15T14:32:35;8.00;99.90
15922;DHT22;8060;50.948;3.146;2024-01-15T14:35:04;8.00;99.90
15922;DHT22;8060;50.948;3.146;2024-01-15T14:37:32;7.90;99.90
15922;DHT22;8060;50.948;3.146;2024-01-15T14:40:02;8.20;99.90
15922;DHT22;8060;50.948;3.146;2024-01-15T14:42:31;8.20;99.90
15922;DHT22;8060;50.948;3.146;2024-01-15T14:44:59;7.80;99.90
15922;DHT22;8060;50.948;3.146;2024-01-15T14:47:28;7.30;99.90
15922;DHT22;8060;50.948;3.146;2024-01-15T14:49:56;7.00;99.90
15922;DHT22;8060;50.948;3.146;2024-01-15T14:52:24;7.00;99.90
15922;DHT22;8060;50.948;3.146;2024-01-15T14:54:52;7.20;99.90
15922;DHT22;8060;50.948;3.146;2024-01-15T14:57:22;7.80;99.90
15922;DHT22;8060;50.948;3.146;2024-01-15T14:59:50;8.30;99.90
15922;DHT22;8060;50.948;3.146;2024-01-15T15:02:19;8.40;99.90
15922;DHT22;8060;50.948;3.146;2024-01-15T15:04:47;8.80;99.90
15922;DHT22;8060;50.948;3.146;2024-01-15T15:07:16;9.00;99.90
15922;DHT22;8060;50.948;3.146;2024-01-15T15:09:44;8.60;99.90
15922;DHT22;8060;50.948;3.146;2024-01-15T15:12:12;7.90;99.90
15922;DHT22;8060;50.948;3.146;2024-01-15T15:14:43;7.30;99.90
15922;DHT22;8060;50.948;3.146;2024-01-15T15:17:25;6.90;99.90
15922;DHT22;8060;50.948;3.146;2024-01-15T15:19:54;6.60;99.90
15922;DHT22;8060;50.948;3.146;2024-01-15T15:22:22;6.40;99.90
15922;DHT22;8060;50.948;3.146;2024-01-15T15:24:51;6.10;99.90
15922;DHT22;8060;50.948;3.146;2024-01-15T15:27:19;5.90;99.90
15922;DHT22;8060;50.948;3.146;2024-01-15T15:29:49;5.70;99.90
15922;DHT22;8060;50.948;3.146;2024-01-15T15:32:18;5.60;99.90
15922;DHT22;8060;50.948;3.146;2024-01-15T15:34:46;5.50;99.90
15922;DHT22;8060;50.948;3.146;2024-01-15T15:37:14;5.50;99.90
15922;DHT22;8060;50.948;3.146;2024-01-15T15:39:44;5.40;99.90
15922;DHT22;8060;50.948;3.146;2024-01-15T15:42:12;5.30;99.90
15922;DHT22;8060;50.948;3.146;2024-01-15T15:44:41;5.20;99.90
15922;DHT22;8060;50.948;3.146;2024-01-15T15:47:14;5.30;99.90
15922;DHT22;8060;50.948;3.146;2024-01-15T15:49:42;5.20;99.90
15922;DHT22;8060;50.948;3.146;2024-01-15T15:52:11;5.10;99.90
15922;DHT22;8060;50.948;3.146;2024-01-15T15:54:39;5.10;99.90
15922;DHT22;8060;50.948;3.146;2024-01-15T15:57:08;5.10;99.90
15922;DHT22;8060;50.948;3.146;2024-01-15T15:59:36;5.00;99.90
15922;DHT22;8060;50.948;3.146;2024-01-15T16:02:05;5.00;99.90
15922;DHT22;8060;50.948;3.146;2024-01-15T16:04:34;4.90;99.90
15922;DHT22;8060;50.948;3.146;2024-01-15T16:07:03;4.80;99.90
15922;DHT22;8060;50.948;3.146;2024-01-15T16:09:34;4.80;99.90
15922;DHT22;8060;50.948;3.146;2024-01-15T16:12:03;4.70;99.90